Time;durP1;ratioP1;P1;durP2;ratioP2;P2;SDS_P1;SDS_P2;PMS_P1;PMS_P2;Temp;Humidity;BMP_temperature;BMP_pressure;BME280_temperature;BME280_humidity;BME280_pressure;Samples;Min_cycle;Max_cycle;Signal;HPM_P1;HPM_P2
2022/03/18 00:00:24;;;;;;;5.93;4.65;;;;;;;19.15;43.97;101892.28;5049069;28;20029;-42
2022/03/18 00:02:55;;;;;;;11.80;4.88;;;;;;;19.14;44.01;101887.16;5061291;28;20032;-43
2022/03/18 00:05:24;;;;;;;6.80;4.25;;;;;;;19.13;43.96;101893.44;5059595;28;20066;-41
2022/03/18 00:07:52;;;;;;;5.93;3.67;;;;;;;19.15;44.11;101894.09;5068244;28;20123;-41
2022/03/18 00:10:18;;;;;;;6.65;4.63;;;;;;;19.14;44.12;101900.38;5052933;28;20082;-40
2022/03/18 00:12:45;;;;;;;6.53;4.32;;;;;;;19.14;44.10;101903.00;5054672;28;20091;-41
2022/03/18 00:15:12;;;;;;;6.47;4.45;;;;;;;19.14;44.15;101903.84;5064323;28;20342;-41
2022/03/18 00:17:40;;;;;;;6.28;3.90;;;;;;;19.14;44.26;101900.38;5060364;28;20040;-42
2022/03/18 00:20:08;;;;;;;5.90;4.55;;;;;;;19.15;44.12;101902.84;5052364;28;20069;-40
2022/03/18 00:22:34;;;;;;;5.28;3.88;;;;;;;19.15;44.15;101905.50;5058021;28;20284;-41
2022/03/18 00:24:59;;;;;;;6.85;4.65;;;;;;;19.16;44.10;101904.50;5064582;28;20136;-40
2022/03/18 00:27:26;;;;;;;5.28;4.38;;;;;;;19.16;44.10;101915.06;5061329;28;20360;-41
2022/03/18 00:29:53;;;;;;;5.07;4.32;;;;;;;19.18;44.10;101906.97;5053971;28;20025;-41
2022/03/18 00:32:18;;;;;;;7.95;4.70;;;;;;;19.17;44.11;101905.31;5050199;28;20037;-40
2022/03/18 00:34:44;;;;;;;7.82;4.18;;;;;;;19.17;44.12;101910.59;5048572;28;20395;-42
2022/03/18 00:37:09;;;;;;;6.95;4.68;;;;;;;19.16;43.91;101904.50;5054541;28;20124;-40
2022/03/18 00:39:35;;;;;;;5.75;3.90;;;;;;;19.15;44.04;101897.56;5055610;28;20044;-41
2022/03/18 00:42:01;;;;;;;5.57;4.18;;;;;;;19.16;43.92;101903.66;5054991;28;20040;-39
2022/03/18 00:44:27;;;;;;;6.32;4.47;;;;;;;19.16;43.83;101908.94;5065298;28;20554;-40
2022/03/18 00:46:55;;;;;;;7.25;4.63;;;;;;;19.15;43.73;101917.88;5062979;28;20104;-39
2022/03/18 00:52:05;;;;;;;5.10;4.55;;;;;;;19.12;44.07;101913.75;5050041;28;20483;-39
2022/03/18 00:54:39;;;;;;;7.57;4.47;;;;;;;19.10;43.86;101914.91;5062880;28;20025;-39
2022/03/18 00:57:06;;;;;;;6.45;4.55;;;;;;;19.10;43.72;101918.38;5050115;28;20107;-42
2022/03/18 00:59:32;;;;;;;6.95;4.68;;;;;;;19.11;43.77;101921.84;5048046;28;20032;-39
2022/03/18 01:01:58;;;;;;;6.20;4.68;;;;;;;19.10;43.77;101914.91;5069602;28;20109;-38
2022/03/18 01:04:26;;;;;;;6.30;4.68;;;;;;;19.09;43.83;101887.66;5051789;28;20063;-42
2022/03/18 01:06:54;;;;;;;10.25;5.07;;;;;;;19.08;43.88;101914.22;5053438;28;20024;-42
2022/03/18 01:09:22;;;;;;;7.03;4.63;;;;;;;19.07;43.69;101915.22;5066552;28;20047;-38
2022/03/18 01:11:49;;;;;;;6.53;5.35;;;;;;;19.07;43.81;101904.66;5064726;28;20040;-42
2022/03/18 01:14:16;;;;;;;6.22;4.95;;;;;;;19.07;43.81;101900.19;5048399;28;20047;-41
2022/03/18 01:16:42;;;;;;;8.73;4.85;;;;;;;19.06;43.89;101905.66;5062194;28;20099;-38
2022/03/18 01:19:08;;;;;;;6.43;4.45;;;;;;;19.05;43.66;101918.03;5059984;28;20315;-41
2022/03/18 01:21:34;;;;;;;5.93;4.43;;;;;;;19.05;43.60;101917.22;5068257;28;20036;-41
2022/03/18 01:24:00;;;;;;;4.65;4.18;;;;;;;19.04;43.72;101913.75;5058553;28;20492;-39
2022/03/18 01:26:26;;;;;;;5.78;4.70;;;;;;;19.04;43.75;101905.00;5049868;28;20658;-38
2022/03/18 01:28:52;;;;;;;5.60;4.88;;;;;;;19.03;43.81;101911.25;5056437;28;20052;-41
2022/03/18 01:31:18;;;;;;;5.47;4.60;;;;;;;19.03;43.78;101913.91;5059436;28;20029;-44
2022/03/18 01:33:44;;;;;;;5.88;4.13;;;;;;;19.02;43.77;101906.97;5055447;28;20033;-41
2022/03/18 01:36:11;;;;;;;7.63;4.70;;;;;;;19.01;43.65;101906.13;5068903;28;20035;-40
2022/03/18 01:38:37;;;;;;;5.55;4.53;;;;;;;19.01;43.84;101905.31;5049389;28;20041;-43
2022/03/18 01:41:02;;;;;;;7.43;4.93;;;;;;;19.02;43.74;101906.97;5038753;28;20029;-42
2022/03/18 01:43:28;;;;;;;7.70;4.97;;;;;;;19.01;43.74;101902.66;5061635;28;20039;-41
2022/03/18 01:45:54;;;;;;;5.95;4.32;;;;;;;19.02;43.84;101888.47;5067990;28;20028;-46
2022/03/18 01:48:19;;;;;;;6.90;4.72;;;;;;;19.01;43.81;101906.13;5066136;28;20025;-41
2022/03/18 01:50:46;;;;;;;6.72;4.78;;;;;;;19.01;43.78;101897.38;5067510;28;20123;-43
2022/03/18 01:53:12;;;;;;;5.32;4.40;;;;;;;19.00;43.77;101908.94;5068002;28;20045;-43
2022/03/18 01:55:38;;;;;;;8.93;4.57;;;;;;;19.01;43.82;101913.25;5066366;28;20455;-41
2022/03/18 01:58:04;;;;;;;5.80;4.40;;;;;;;19.01;43.67;101907.97;5065916;28;20064;-41
2022/03/18 02:00:30;;;;;;;7.30;5.13;;;;;;;18.99;43.59;101905.47;5048401;28;20017;-41
2022/03/18 02:02:57;;;;;;;5.25;4.40;;;;;;;18.97;43.45;101910.09;5048162;28;20032;-41
2022/03/18 02:05:23;;;;;;;4.80;4.30;;;;;;;18.98;43.55;101908.28;5067005;28;20028;-38
2022/03/18 02:07:50;;;;;;;4.88;4.35;;;;;;;18.98;43.56;101905.66;5065222;28;20140;-39
2022/03/18 02:12:50;;;;;;;6.40;4.97;;;;;;;18.95;43.61;101900.69;4930041;22;20064;-38
2022/03/18 02:15:16;;;;;;;4.93;4.30;;;;;;;18.96;43.76;101907.63;5047697;28;20134;-41
2022/03/18 02:17:41;;;;;;;4.80;3.65;;;;;;;18.95;44.72;101898.03;5047647;28;20025;-39
2022/03/18 02:20:08;;;;;;;5.75;4.60;;;;;;;18.95;44.98;101900.69;5047722;28;20052;-38
2022/03/18 02:22:40;;;;;;;7.13;4.53;;;;;;;18.93;44.56;101916.69;5047455;28;20332;-38
2022/03/18 02:25:09;;;;;;;5.05;4.38;;;;;;;18.95;44.71;101917.34;5046289;28;20052;-40
2022/03/18 02:27:37;;;;;;;4.82;4.35;;;;;;;18.95;44.72;101912.06;5047377;28;20039;-41
2022/03/18 02:30:04;;;;;;;7.95;4.68;;;;;;;18.97;44.64;101919.84;5047149;28;20028;-38
2022/03/18 02:32:31;;;;;;;5.22;4.68;;;;;;;18.96;44.74;101912.91;5029384;28;20127;-37
2022/03/18 02:34:57;;;;;;;4.28;3.88;;;;;;;18.97;44.57;101911.91;5047170;28;20024;-38
2022/03/18 02:37:23;;;;;;;6.50;4.72;;;;;;;18.97;44.57;101920.66;5047479;28;20040;-38
2022/03/18 02:39:48;;;;;;;6.45;4.43;;;;;;;18.97;44.42;101923.31;5045499;28;20112;-39
2022/03/18 02:42:14;;;;;;;5.20;4.00;;;;;;;18.97;44.41;101922.47;5047004;28;20064;-37
2022/03/18 02:44:39;;;;;;;6.03;4.35;;;;;;;18.97;44.20;101936.50;5047177;28;20404;-39
2022/03/18 02:47:05;;;;;;;5.97;4.45;;;;;;;18.97;44.29;101935.69;5047247;28;20032;-40
2022/03/18 02:49:31;;;;;;;5.55;4.13;;;;;;;18.99;44.36;101928.41;5046980;28;20272;-39
2022/03/18 02:51:56;;;;;;;6.47;4.93;;;;;;;18.99;44.18;101933.72;5046889;28;20091;-42
2022/03/18 02:54:22;;;;;;;5.45;4.60;;;;;;;18.98;44.23;101932.88;5046677;28;20036;-40
2022/03/18 02:56:49;;;;;;;5.22;4.38;;;;;;;18.98;44.11;101950.53;5046855;28;20040;-40
2022/03/18 02:59:14;;;;;;;5.40;4.53;;;;;;;18.99;44.17;101949.56;5047142;28;20033;-43
2022/03/18 03:01:40;;;;;;;6.28;3.80;;;;;;;18.97;44.09;101940.97;5046951;28;20108;-38
2022/03/18 03:04:05;;;;;;;5.15;3.95;;;;;;;18.97;43.99;101955.00;5046703;28;20078;-40
2022/03/18 03:09:17;;;;;;;6.07;4.70;;;;;;;18.95;44.40;101953.50;5046796;28;20039;-40
2022/03/18 03:11:44;;;;;;;6.07;5.13;;;;;;;18.97;44.28;101954.16;5046636;28;20146;-40
2022/03/18 03:14:09;;;;;;;6.68;4.55;;;;;;;18.95;44.24;101950.88;5046938;28;20036;-40
2022/03/18 03:16:35;;;;;;;5.65;4.28;;;;;;;18.94;43.95;101952.69;5046916;28;20041;-40
2022/03/18 03:19:03;;;;;;;5.28;4.35;;;;;;;18.94;44.04;101962.41;5046601;28;20024;-40
2022/03/18 03:21:30;;;;;;;7.07;4.30;;;;;;;18.93;44.01;101966.88;5044885;28;20037;-38
2022/03/18 03:23:56;;;;;;;4.75;3.83;;;;;;;18.93;44.02;101971.31;5046421;28;20451;-40
2022/03/18 03:26:22;;;;;;;5.55;4.57;;;;;;;18.92;43.95;101944.09;5046589;28;20067;-43
2022/03/18 03:28:47;;;;;;;6.00;4.47;;;;;;;18.91;43.98;101966.22;5046479;28;20265;-43
2022/03/18 03:31:13;;;;;;;5.70;4.88;;;;;;;18.90;43.97;101967.22;5046460;28;20029;-41
2022/03/18 03:33:39;;;;;;;5.35;4.55;;;;;;;18.89;43.84;101969.03;5046431;28;20025;-40
2022/03/18 03:36:04;;;;;;;5.03;4.53;;;;;;;18.90;43.89;101972.50;5047243;28;20077;-42
2022/03/18 03:38:30;;;;;;;5.38;4.45;;;;;;;18.88;43.89;101961.28;5050542;28;20451;-41
2022/03/18 03:40:55;;;;;;;5.53;4.20;;;;;;;18.88;43.85;101964.75;5050537;28;20033;-41
2022/03/18 03:43:21;;;;;;;5.93;4.18;;;;;;;18.87;43.77;101973.66;5050605;28;20025;-40
2022/03/18 03:45:47;;;;;;;4.88;4.32;;;;;;;18.87;43.74;101978.13;5050703;28;20128;-40
2022/03/18 03:48:13;;;;;;;5.13;4.63;;;;;;;18.85;43.92;101973.00;5050732;28;20468;-40
2022/03/18 03:50:42;;;;;;;5.63;4.60;;;;;;;18.86;43.82;101974.66;5050728;28;20056;-39
2022/03/18 03:53:09;;;;;;;8.57;4.50;;;;;;;18.85;43.83;101974.81;5050825;28;20021;-39
2022/03/18 03:55:38;;;;;;;4.93;4.30;;;;;;;18.84;43.95;101976.63;5050259;28;20124;-38
2022/03/18 03:58:06;;;;;;;5.43;4.22;;;;;;;18.83;43.92;101977.59;5048747;28;20128;-39
2022/03/18 04:00:31;;;;;;;5.80;4.60;;;;;;;18.85;43.82;101970.34;5050373;28;20040;-38
2022/03/18 04:02:57;;;;;;;4.85;4.18;;;;;;;18.85;43.88;101975.63;5050167;28;20048;-39
2022/03/18 04:05:22;;;;;;;5.88;4.15;;;;;;;18.85;43.92;101978.28;5050076;28;20049;-38
2022/03/18 04:07:48;;;;;;;6.00;4.45;;;;;;;18.85;43.84;101980.91;5050082;28;20029;-41
2022/03/18 04:10:13;;;;;;;7.40;4.32;;;;;;;18.85;43.91;101985.38;5050085;28;20121;-41
2022/03/18 04:12:40;;;;;;;5.20;4.15;;;;;;;18.83;43.89;101982.88;5048276;28;20049;-42
2022/03/18 04:15:09;;;;;;;4.78;4.30;;;;;;;18.84;43.96;101987.19;5049912;28;20526;-40
2022/03/18 04:17:43;;;;;;;5.10;4.45;;;;;;;18.84;43.98;101983.72;5049748;28;20024;-39
2022/03/18 04:20:11;;;;;;;4.38;3.78;;;;;;;18.84;43.87;101979.25;5048412;28;20446;-40
2022/03/18 04:22:37;;;;;;;4.43;3.95;;;;;;;18.83;43.82;101982.06;5050043;28;20328;-39
2022/03/18 04:25:03;;;;;;;4.82;4.43;;;;;;;18.83;43.77;101982.88;5049637;28;20413;-42
2022/03/18 04:27:28;;;;;;;4.63;4.22;;;;;;;18.82;43.78;101980.41;5049626;28;20257;-41
2022/03/18 04:29:54;;;;;;;5.03;4.18;;;;;;;18.81;43.73;101979.59;5049494;28;20027;-39
2022/03/18 04:32:19;;;;;;;6.13;4.22;;;;;;;18.80;43.88;101985.84;5049438;28;20051;-40
2022/03/18 04:34:45;;;;;;;5.38;4.47;;;;;;;18.80;43.88;101983.22;5049800;28;20032;-40
2022/03/18 04:37:10;;;;;;;5.80;4.35;;;;;;;18.80;43.89;101987.66;5049629;28;20484;-40
2022/03/18 04:39:36;;;;;;;5.55;4.60;;;;;;;18.80;43.71;101992.94;5049390;28;20017;-39
2022/03/18 04:42:02;;;;;;;6.57;4.45;;;;;;;18.79;43.85;102000.03;5031567;28;20116;-41
2022/03/18 04:44:27;;;;;;;4.45;4.05;;;;;;;18.78;43.97;101990.47;5049064;28;20041;-41
2022/03/18 04:46:53;;;;;;;5.82;4.18;;;;;;;18.79;43.88;101994.75;5047440;28;20032;-38
2022/03/18 04:49:18;;;;;;;4.72;4.22;;;;;;;18.81;43.82;102013.09;5049424;28;20033;-43
2022/03/18 04:51:44;;;;;;;5.32;4.82;;;;;;;18.80;43.91;102003.50;5049680;28;20024;-38
2022/03/18 04:54:09;;;;;;;6.43;4.20;;;;;;;18.80;43.81;102008.78;5049181;28;20029;-41
2022/03/18 04:59:19;;;;;;;4.45;4.05;;;;;;;18.80;44.04;102003.50;5049513;28;20114;-45
2022/03/18 05:01:46;;;;;;;5.28;4.38;;;;;;;18.81;43.83;101999.88;5049472;28;20057;-41
2022/03/18 05:04:12;;;;;;;4.30;3.90;;;;;;;18.81;43.84;102003.34;5049008;28;20465;-41
2022/03/18 05:06:39;;;;;;;5.97;4.85;;;;;;;18.82;43.81;102012.94;5049304;28;20031;-42
2022/03/18 05:09:05;;;;;;;5.65;4.10;;;;;;;18.82;43.87;102012.94;5047625;28;20476;-39
2022/03/18 05:11:31;;;;;;;6.43;4.50;;;;;;;18.84;43.60;102024.16;5048979;28;20029;-40
2022/03/18 05:13:57;;;;;;;5.50;4.35;;;;;;;18.83;43.75;102019.03;5048844;28;20048;-41
2022/03/18 05:16:24;;;;;;;4.93;3.97;;;;;;;18.82;43.73;102015.56;5049059;28;20039;-40
2022/03/18 05:18:50;;;;;;;4.15;3.83;;;;;;;18.83;43.45;102021.69;5030648;28;20051;-44
2022/03/18 05:21:15;;;;;;;5.15;4.10;;;;;;;18.82;43.67;102023.50;5048846;28;20634;-42
2022/03/18 05:23:41;;;;;;;5.05;4.10;;;;;;;18.82;43.60;102025.31;5049073;28;20036;-39
2022/03/18 05:26:07;;;;;;;7.15;4.93;;;;;;;18.81;43.83;102021.84;5048971;28;20469;-39
2022/03/18 05:28:32;;;;;;;6.53;4.38;;;;;;;18.80;43.65;102025.47;5048845;28;20526;-43
2022/03/18 05:30:58;;;;;;;4.75;4.25;;;;;;;18.80;43.70;102020.19;5048559;28;20036;-42
2022/03/18 05:33:24;;;;;;;3.88;3.58;;;;;;;18.80;43.66;102024.63;5048558;28;20507;-38
2022/03/18 05:35:49;;;;;;;5.43;4.28;;;;;;;18.79;43.74;102033.53;5030381;28;20021;-38
2022/03/18 05:38:15;;;;;;;5.55;5.00;;;;;;;18.79;43.67;102033.53;5048842;28;20472;-41
2022/03/18 05:40:41;;;;;;;5.55;4.43;;;;;;;18.78;43.61;102026.59;5048500;28;20106;-41
2022/03/18 05:43:07;;;;;;;4.55;4.15;;;;;;;18.77;43.66;102033.69;5048325;28;20039;-42
2022/03/18 05:45:32;;;;;;;4.20;3.90;;;;;;;18.77;43.46;102038.16;5048380;28;20029;-38
2022/03/18 05:47:59;;;;;;;4.85;4.43;;;;;;;18.75;43.54;102027.75;5048610;28;20044;-41
2022/03/18 05:50:25;;;;;;;5.10;4.03;;;;;;;18.74;43.56;102036.66;5046668;28;20064;-39
2022/03/18 05:52:51;;;;;;;4.50;3.90;;;;;;;18.75;43.64;102032.19;5048787;28;20033;-41
2022/03/18 05:55:16;;;;;;;4.65;3.95;;;;;;;18.73;43.60;102037.66;5048227;28;20032;-43
2022/03/18 05:57:42;;;;;;;4.85;4.45;;;;;;;18.72;43.55;102036.00;5048235;28;20039;-45
2022/03/18 06:00:08;;;;;;;4.80;4.38;;;;;;;18.72;43.57;102040.44;5029618;28;20415;-39
2022/03/18 06:02:34;;;;;;;5.25;4.60;;;;;;;18.72;43.53;102048.38;5058136;28;20148;-41
2022/03/18 06:05:00;;;;;;;5.53;4.47;;;;;;;18.71;43.50;102033.50;5049722;28;20578;-41
2022/03/18 06:07:25;;;;;;;5.45;4.90;;;;;;;18.70;43.64;102035.31;5067633;28;20070;-38
2022/03/18 06:12:35;;;;;;;4.70;4.30;;;;;;;18.68;43.71;102047.03;5067761;28;20446;-41
2022/03/18 06:15:01;;;;;;;5.60;4.38;;;;;;;18.67;43.69;102056.75;5067577;28;20024;-45
2022/03/18 06:17:26;;;;;;;4.80;4.28;;;;;;;18.67;43.53;102048.84;5068172;28;20108;-41
2022/03/18 06:19:52;;;;;;;5.40;4.65;;;;;;;18.67;43.48;102030.34;5058486;28;20503;-40
2022/03/18 06:22:17;;;;;;;4.70;3.55;;;;;;;18.67;43.46;102040.91;5047579;28;20049;-41
2022/03/18 06:24:44;;;;;;;4.20;3.72;;;;;;;18.68;43.34;102037.28;5047386;28;20031;-40
2022/03/18 06:27:10;;;;;;;6.15;4.53;;;;;;;18.68;43.26;102042.56;5047141;28;20116;-38
2022/03/18 06:29:37;;;;;;;4.68;4.10;;;;;;;18.69;43.24;102048.69;5013093;28;20033;-40
2022/03/18 06:32:03;;;;;;;4.97;4.35;;;;;;;18.68;43.36;102037.28;5047227;28;20578;-40
2022/03/18 06:34:29;;;;;;;4.20;3.45;;;;;;;18.68;43.30;102044.38;5047201;28;20495;-41
2022/03/18 06:36:57;;;;;;;4.40;4.00;;;;;;;18.70;43.49;102059.09;5047587;28;20025;-41
2022/03/18 06:39:24;;;;;;;4.55;4.07;;;;;;;18.69;43.27;102043.41;5047114;28;20029;-41
2022/03/18 06:41:50;;;;;;;4.13;3.63;;;;;;;18.68;43.38;102058.41;5047533;28;20076;-45
2022/03/18 06:44:16;;;;;;;4.70;4.05;;;;;;;18.68;44.06;102062.88;5046910;28;20067;-40
2022/03/18 06:46:42;;;;;;;5.45;4.68;;;;;;;18.68;44.14;102065.50;5047016;28;20032;-38
2022/03/18 06:49:08;;;;;;;7.15;4.25;;;;;;;18.67;44.06;102061.22;5046906;28;20033;-41
2022/03/18 06:51:35;;;;;;;4.72;4.22;;;;;;;18.67;43.96;102083.16;5046963;28;20029;-43
2022/03/18 06:54:01;;;;;;;6.40;4.38;;;;;;;18.67;43.96;102083.16;5047308;28;20029;-40
2022/03/18 06:56:27;;;;;;;4.97;4.43;;;;;;;18.66;43.99;102086.78;5056289;28;20039;-38
2022/03/18 06:58:53;;;;;;;5.75;3.70;;;;;;;18.65;43.93;102079.84;5056380;28;20506;-39
2022/03/18 07:01:21;;;;;;;4.70;4.20;;;;;;;18.65;43.76;102086.94;5062812;28;20183;-40
2022/03/18 07:03:49;;;;;;;5.95;3.47;;;;;;;18.65;43.92;102082.50;5062010;28;20455;-42
2022/03/18 07:06:15;;;;;;;3.88;3.40;;;;;;;18.64;44.05;102088.75;5062253;28;20518;-42
2022/03/18 07:08:40;;;;;;;3.58;3.00;;;;;;;18.65;44.11;102089.59;5063821;28;20107;-43
2022/03/18 07:11:07;;;;;;;3.70;3.33;;;;;;;18.65;44.17;102086.94;5065750;28;20468;-40
2022/03/18 07:13:33;;;;;;;3.67;3.20;;;;;;;18.67;44.35;102098.16;5060636;28;20056;-42
2022/03/18 07:17:54;;;;;;;4.55;3.35;;;;;;;18.71;44.45;102102.97;5063292;28;20519;-38
2022/03/18 07:18:45;;;;;;;3.33;3.03;;;;;;;18.75;44.69;102083.19;5054099;28;20071;-46
2022/03/18 07:21:10;;;;;;;4.68;3.50;;;;;;;18.78;44.70;102095.25;5066298;28;20020;-43
2022/03/18 07:23:36;;;;;;;4.00;3.25;;;;;;;18.82;44.84;102107.16;5059784;28;20040;-40
2022/03/18 07:26:01;;;;;;;14.95;4.03;;;;;;;18.84;44.83;102106.00;5046244;28;20078;-39
2022/03/18 07:28:27;;;;;;;4.10;3.40;;;;;;;18.89;44.94;102106.38;5050280;28;20455;-40
2022/03/18 07:30:52;;;;;;;4.28;3.30;;;;;;;18.95;45.06;102112.78;5046469;28;20032;-37
2022/03/18 07:33:18;;;;;;;5.95;3.85;;;;;;;18.98;45.01;102106.38;5050837;28;20195;-39
2022/03/18 07:35:43;;;;;;;4.43;3.50;;;;;;;19.02;45.20;102113.81;5061334;28;20032;-42
2022/03/18 07:38:09;;;;;;;7.10;3.85;;;;;;;19.11;45.31;102119.97;5066265;28;20115;-44
2022/03/18 07:40:41;;;;;;;5.15;3.65;;;;;;;19.22;45.39;102117.03;5064573;28;20031;-45
2022/03/18 07:43:07;;;;;;;12.73;4.30;;;;;;;19.29;45.36;102115.41;5068253;22;20072;-41
2022/03/18 07:45:34;;;;;;;5.85;3.70;;;;;;;19.31;45.49;102121.34;5061413;28;20044;-40
2022/03/18 07:48:01;;;;;;;10.90;4.05;;;;;;;19.31;45.74;102124.00;5062184;28;20633;-39
2022/03/18 07:50:28;;;;;;;8.73;4.45;;;;;;;19.31;45.99;102147.78;5065324;28;20475;-37
2022/03/18 07:52:58;;;;;;;7.20;4.70;;;;;;;19.37;47.03;102138.38;5061276;28;20021;-38
2022/03/18 07:55:26;;;;;;;8.98;4.50;;;;;;;19.45;46.84;102141.84;5027687;28;20059;-38
2022/03/18 07:57:52;;;;;;;6.05;4.10;;;;;;;19.43;47.27;102125.31;5062762;28;20187;-38
2022/03/18 08:00:18;;;;;;;8.60;4.03;;;;;;;19.42;47.36;102128.94;5063307;28;20368;-37
2022/03/18 08:02:45;;;;;;;6.45;3.38;;;;;;;19.41;47.44;102151.09;5064927;28;20468;-39
2022/03/18 08:05:12;;;;;;;6.68;3.67;;;;;;;19.40;47.36;102128.28;5065913;28;20032;-39
2022/03/18 08:07:39;;;;;;;9.75;2.95;;;;;;;19.41;47.28;102129.09;5056549;28;20495;-38
2022/03/18 08:10:06;;;;;;;11.70;3.60;;;;;;;19.43;47.52;102132.41;5062829;28;20107;-37
2022/03/18 08:12:32;;;;;;;5.95;3.30;;;;;;;19.43;47.40;102143.81;5065187;28;20035;-39
2022/03/18 08:14:59;;;;;;;6.00;3.20;;;;;;;19.42;47.38;102142.16;5066277;28;20112;-47
2022/03/18 08:17:25;;;;;;;6.03;2.80;;;;;;;19.44;47.00;102134.91;5057117;28;20166;-40
2022/03/18 08:19:52;;;;;;;8.27;3.72;;;;;;;19.46;46.88;102148.78;5047147;28;20037;-40
2022/03/18 08:22:21;;;;;;;7.10;4.00;;;;;;;19.48;46.72;102152.09;5047373;28;20056;-40
2022/03/18 08:24:48;;;;;;;8.60;3.53;;;;;;;19.49;46.73;102153.75;5049800;28;20476;-40
2022/03/18 08:27:13;;;;;;;4.60;2.90;;;;;;;19.51;46.67;102162.38;5031790;28;20043;-38
2022/03/18 08:29:39;;;;;;;7.95;2.63;;;;;;;19.53;46.93;102160.41;5068861;28;20024;-40
2022/03/18 08:32:07;;;;;;;14.52;3.45;;;;;;;19.55;47.23;102162.88;5069340;28;20064;-44
2022/03/18 08:34:33;;;;;;;14.50;3.17;;;;;;;19.54;47.04;102159.41;5069597;28;20109;-39
2022/03/18 08:36:58;;;;;;;11.18;3.17;;;;;;;19.55;46.88;102166.34;5050254;28;20123;-40
2022/03/18 08:39:24;;;;;;;5.95;3.47;;;;;;;19.54;46.26;102143.53;5065704;28;20419;-37
2022/03/18 08:41:50;;;;;;;10.18;3.75;;;;;;;19.52;45.76;102131.47;5068260;28;20145;-39
2022/03/18 08:44:19;;;;;;;6.95;3.25;;;;;;;19.51;44.57;102165.03;5064898;28;20037;-39
2022/03/18 08:46:46;;;;;;;20.52;4.45;;;;;;;19.52;43.81;102181.72;5058852;28;20033;-38
2022/03/18 08:49:12;;;;;;;10.10;4.10;;;;;;;19.52;43.25;102176.41;5055108;28;20037;-39
2022/03/18 08:51:37;;;;;;;7.30;3.65;;;;;;;19.51;43.14;102194.09;5066532;28;20228;-39
2022/03/18 08:54:03;;;;;;;12.98;3.30;;;;;;;19.51;43.14;102202.03;5067678;28;20032;-40
2022/03/18 08:56:29;;;;;;;9.02;3.58;;;;;;;19.52;42.99;102190.47;5063077;28;20451;-37
2022/03/18 08:58:55;;;;;;;5.20;3.40;;;;;;;19.50;42.91;102184.47;5068423;28;20064;-38
2022/03/18 09:01:20;;;;;;;7.72;3.72;;;;;;;19.52;43.07;102190.47;5066357;28;20566;-38
2022/03/18 09:03:47;;;;;;;7.55;3.28;;;;;;;19.52;43.25;102177.25;5067157;28;20036;-37
2022/03/18 09:06:14;;;;;;;8.32;3.30;;;;;;;19.52;43.20;102169.31;5067848;28;20078;-37
2022/03/18 09:08:41;;;;;;;7.13;3.30;;;;;;;19.52;43.49;102185.19;5048460;28;20028;-39
2022/03/18 09:11:07;;;;;;;7.38;2.88;;;;;;;19.51;43.31;102183.53;5069582;28;20115;-38
2022/03/18 09:13:35;;;;;;;7.85;3.80;;;;;;;19.52;43.29;102194.91;5065910;28;20376;-39
2022/03/18 09:16:02;;;;;;;6.28;3.33;;;;;;;19.51;43.33;102183.53;5069671;28;20045;-39
2022/03/18 09:18:28;;;;;;;8.20;3.05;;;;;;;19.51;43.23;102175.59;5067293;28;20523;-38
2022/03/18 09:20:54;;;;;;;8.63;3.67;;;;;;;19.51;43.04;102177.41;5069190;28;20032;-39
2022/03/18 09:23:19;;;;;;;5.88;3.35;;;;;;;19.51;42.98;102188.81;5065344;28;20137;-40
2022/03/18 09:25:45;;;;;;;6.53;3.05;;;;;;;19.53;42.86;102201.88;5066092;28;20107;-39
2022/03/18 09:28:11;;;;;;;6.05;3.15;;;;;;;19.53;42.87;102186.00;5065357;28;20033;-38
2022/03/18 09:30:36;;;;;;;5.32;3.35;;;;;;;19.53;42.69;102205.34;5068460;28;20028;-37
2022/03/18 09:33:02;;;;;;;6.47;2.88;;;;;;;19.54;42.92;102203.53;5067488;28;20029;-42
2022/03/18 09:35:28;;;;;;;6.53;2.72;;;;;;;19.55;42.83;102199.88;5065015;28;20189;-39
2022/03/18 09:37:53;;;;;;;4.68;2.83;;;;;;;19.57;42.92;102199.72;5062811;28;20111;-37
2022/03/18 09:40:19;;;;;;;4.35;2.90;;;;;;;19.58;42.93;102209.31;5066689;28;20024;-38
2022/03/18 09:42:56;;;;;;;9.63;3.95;;;;;;;19.56;43.03;102212.13;5063621;28;20055;-39
2022/03/18 09:45:24;;;;;;;8.32;3.80;;;;;;;19.56;42.84;102206.84;5059732;28;20044;-43
2022/03/18 09:47:51;;;;;;;5.60;3.00;;;;;;;19.60;42.84;102202.06;5060649;28;20027;-39
2022/03/18 09:50:17;;;;;;;3.92;2.60;;;;;;;19.59;42.74;102197.75;5064253;28;20024;-40
2022/03/18 09:52:44;;;;;;;4.15;2.72;;;;;;;19.57;42.73;102189.97;5056095;28;20115;-38
2022/03/18 09:55:09;;;;;;;5.97;2.90;;;;;;;19.54;42.72;102193.78;5048117;28;20535;-39
2022/03/18 09:57:35;;;;;;;4.45;2.90;;;;;;;19.52;42.34;102195.75;5065234;28;20032;-39
2022/03/18 10:00:01;;;;;;;4.65;2.50;;;;;;;19.51;42.58;102204.66;5063704;28;20033;-38
2022/03/18 10:02:30;;;;;;;7.65;3.40;;;;;;;19.51;42.40;102206.47;5062725;28;20086;-39
2022/03/18 10:04:57;;;;;;;3.03;2.53;;;;;;;19.50;42.39;102196.88;5065410;28;20135;-38
2022/03/18 10:07:24;;;;;;;4.70;2.30;;;;;;;19.49;42.25;102193.41;5066241;28;20039;-41
2022/03/18 10:10:02;;;;;;;3.85;2.88;;;;;;;19.45;42.28;102215.84;5065033;28;20021;-39
2022/03/18 10:12:36;;;;;;;5.95;2.47;;;;;;;19.45;42.69;102215.84;5061144;28;20111;-40
2022/03/18 10:15:22;;;;;;;4.30;3.00;;;;;;;19.45;42.58;102220.31;5064969;28;20047;-38
2022/03/18 10:17:50;;;;;;;5.70;2.85;;;;;;;19.46;42.91;102227.25;5063356;28;20039;-40
2022/03/18 10:20:28;;;;;;;6.95;2.97;;;;;;;19.43;42.99;102215.19;5060441;28;20036;-41
2022/03/18 10:22:57;;;;;;;3.17;2.38;;;;;;;19.43;43.14;102212.53;5058752;28;20025;-39
2022/03/18 10:25:50;;;;;;;14.90;3.13;;;;;;;19.40;43.32;102207.56;5065142;28;20036;-40
2022/03/18 10:28:31;;;;;;;2.92;2.22;;;;;;;19.42;43.27;102212.69;5067084;28;20058;-38
2022/03/18 10:31:19;;;;;;;2.45;2.22;;;;;;;19.38;43.17;102209.53;5067516;28;20032;-43
2022/03/18 10:37:05;;;;;;;3.70;2.53;;;;;;;19.34;43.07;102197.66;5067018;28;20398;-39
2022/03/18 10:39:33;;;;;;;4.15;2.60;;;;;;;19.37;43.03;102207.91;5067230;28;20028;-40
2022/03/18 10:42:04;;;;;;;4.35;2.63;;;;;;;19.37;42.89;102229.06;5065144;28;20047;-40
2022/03/18 10:44:41;;;;;;;4.35;2.47;;;;;;;19.33;42.92;102227.72;5065831;28;20036;-37
2022/03/18 10:47:07;;;;;;;3.55;2.55;;;;;;;19.35;42.83;102230.22;5064032;28;20390;-40
2022/03/18 10:49:33;;;;;;;4.25;2.67;;;;;;;19.34;42.74;102216.16;5067092;28;20035;-38
2022/03/18 10:52:10;;;;;;;4.18;2.97;;;;;;;19.32;42.82;102223.44;5067140;28;20028;-36
2022/03/18 10:54:35;;;;;;;4.70;3.47;;;;;;;19.31;43.22;102234.97;5067036;28;20032;-39
2022/03/18 10:57:02;;;;;;;4.32;3.38;;;;;;;19.41;44.31;102234.84;5063022;28;20029;-38
2022/03/18 10:59:27;;;;;;;9.23;4.88;;;;;;;19.49;46.04;102217.19;5050300;28;20040;-40
2022/03/18 11:01:56;;;;;;;7.47;4.43;;;;;;;19.60;47.63;102224.03;5066901;28;20145;-43
2022/03/18 11:04:23;;;;;;;6.75;5.15;;;;;;;19.60;48.54;102231.13;5048426;28;20035;-39
2022/03/18 11:12:27;;;;;;;4.97;3.45;;;;;;;19.51;47.88;102231.09;5065836;28;20120;-43
2022/03/18 11:14:56;;;;;;;7.25;4.18;;;;;;;19.48;46.84;102231.38;5066864;28;20606;-39
2022/03/18 11:17:23;;;;;;;4.88;3.63;;;;;;;19.46;46.19;102229.91;5065984;28;20510;-38
2022/03/18 11:19:51;;;;;;;8.43;2.63;;;;;;;19.45;45.42;102233.53;5066037;28;20492;-37
2022/03/18 11:22:17;;;;;;;3.47;2.80;;;;;;;19.44;44.74;102229.22;5065823;28;20165;-39
2022/03/18 11:24:45;;;;;;;7.40;3.00;;;;;;;19.43;44.42;102243.44;5066568;28;20501;-37
2022/03/18 11:27:12;;;;;;;4.43;2.58;;;;;;;19.42;43.90;102247.06;5065642;28;20502;-39
2022/03/18 11:29:38;;;;;;;3.38;2.80;;;;;;;19.43;43.72;102244.25;5047320;28;20392;-38
2022/03/18 11:32:09;;;;;;;2.90;2.70;;;;;;;19.41;43.27;102234.84;5066520;28;20034;-38
2022/03/18 11:34:52;;;;;;;6.70;2.90;;;;;;;19.38;43.22;102229.84;5066438;28;20082;-37
2022/03/18 11:37:19;;;;;;;2.67;2.35;;;;;;;19.37;43.38;102229.06;5032269;28;20060;-41
2022/03/18 11:39:46;;;;;;;6.68;2.75;;;;;;;19.37;42.90;102242.28;5065426;28;20029;-42
2022/03/18 11:42:17;;;;;;;5.15;2.92;;;;;;;19.35;42.70;102236.31;5065349;28;20448;-39
2022/03/18 11:44:44;;;;;;;3.33;3.10;;;;;;;19.36;42.69;102205.44;5066239;28;20479;-40